Portada
METAR-TAF:

METAR-TAF

Aeroports :

Glasgow, Escòcia

latitud: 55-52N, longitud: 004-26W, altitud: 8 m

Observació

L'informe es va fer fa 29 minuts, a les 02:20 UTC
Vent 4 kt del Oest/Sud-Oest, variant entre Sud-Oest i Oest/Nord-Oest
Temperatura 7°C
Humitat 87%
Pressió 1001 hPa
Visibilitat 10 km o més

METAR: EGPF 230220Z AUTO 24004KT 220V300 9999 NCD 07/05 Q1001

Hora: 03:49 (02:49 UTC)

Pronòstic

L'informe es va fer fa 3 hores i 51 minuts, a les 22:58 UTC
Pronòstic vàlid del 23 a les 00 UTC al 23 a les 24 UTC
Vent 8 kt del Oest
Visibilitat 10 km o més
Núvols disperses a una alçada de 2500 ft
Probabilitat 30% :
Temporalment
l' 23 a les 12 UTC al 23 a les 18 UTC
Visibilitat: 7000 m
xàfecs de pluja
Evolucionant progressivament
l' 23 a les 18 UTC al 23 a les 21 UTC
Vent 10 kt del Est

TAF: EGPF 222258Z 2300/2324 27008KT 9999 SCT025 PROB30 TEMPO 2312/2318 7000 -SHRA BECMG 2318/2321 09010KT

Observacions i pronòstics meteorològics de més de 4000 aeroports (METAR i TAF).

Les estacions disponibles són els punts grocs i vermells al mapa.

Posi el ratolí al punt desitjat per veure el nom de l'estació.

Feu clic per veure les observacions i els pronòstics meteorològics.

Per canviar el mapa: feu clic els botons verds amb una creu de color negre per apropar; al botó verd amb un guió per allunyar la imatge; o en les fletxes verdes per a mapes adjacents.


METAR-TAF: